Terminal Aerodrome Forecast
Issued by NWS

Home | Current Version | Previous Version | Graphics & Text | Print | Product List | Glossary On
Versions: 1 2 3 4 5 6 7 8 9 10 11 12 13 14 15 16 17 18 19 20
049
FTUS43 KBIS 211128
TAFMOT
TAF
KMOT 211128Z 2112/2212 13004KT P6SM SCT150
     FM211500 13016G24KT P6SM FEW080
     FM220800 16013KT P6SM BKN025=

USA.gov is the U.S. government's official web portal to all federal, state and local government web resources and services.